Time;durP1;ratioP1;P1;durP2;ratioP2;P2;SDS_P1;SDS_P2;PMS_P1;PMS_P2;Temp;Humidity;BMP_temperature;BMP_pressure;BME280_temperature;BME280_humidity;BME280_pressure;Samples;Min_cycle;Max_cycle;Signal;HPM_P1;HPM_P2
2021/07/07 00:00:34;;;;;;;;;;;25.40;52.10;;;;;;1539469;76;742;-66
2021/07/07 00:02:35;;;;;;;;;;;25.30;52.10;;;;;;1533432;76;712;-67
2021/07/07 00:04:37;;;;;;;;;;;25.30;52.20;;;;;;1532351;76;774;-67
2021/07/07 00:06:39;;;;;;;;;;;25.30;52.20;;;;;;1533797;75;792;-68
2021/07/07 00:08:41;;;;;;;;;;;25.30;52.30;;;;;;1532787;75;1144;-67
2021/07/07 00:10:43;;;;;;;;;;;25.40;52.30;;;;;;1526742;76;693;-66
2021/07/07 00:12:46;;;;;;;;;;;25.40;52.20;;;;;;1527945;75;740;-67
2021/07/07 00:14:47;;;;;;;;;;;25.40;52.30;;;;;;1526183;76;1913;-67
2021/07/07 00:16:49;;;;;;;;;;;25.30;52.30;;;;;;1531134;76;844;-65
2021/07/07 00:18:51;;;;;;;;;;;25.40;52.30;;;;;;1531346;76;1086;-66
2021/07/07 00:20:56;;;;;;;;;;;25.40;52.30;;;;;;1529834;76;729;-67
2021/07/07 00:22:58;;;;;;;;;;;25.40;52.30;;;;;;1543162;75;909;-68
2021/07/07 00:25:00;;;;;;;;;;;25.40;52.30;;;;;;1544274;76;759;-66
2021/07/07 00:27:01;;;;;;;;;;;25.40;52.40;;;;;;1551238;76;786;-67
2021/07/07 00:29:03;;;;;;;;;;;25.30;52.30;;;;;;1549646;75;1143;-66
2021/07/07 00:31:05;;;;;;;;;;;25.30;52.30;;;;;;1541682;76;699;-66
2021/07/07 00:33:07;;;;;;;;;;;25.30;52.40;;;;;;1541286;76;771;-68
2021/07/07 00:35:10;;;;;;;;;;;25.40;52.30;;;;;;1554170;75;1916;-67
2021/07/07 00:37:12;;;;;;;;;;;25.30;52.30;;;;;;1555210;76;734;-68
2021/07/07 00:39:14;;;;;;;;;;;25.30;52.30;;;;;;1558174;75;1134;-68
2021/07/07 00:41:16;;;;;;;;;;;25.40;52.30;;;;;;1535929;76;741;-66
2021/07/07 00:43:18;;;;;;;;;;;25.40;52.30;;;;;;1550432;75;747;-67
2021/07/07 00:45:19;;;;;;;;;;;25.40;52.30;;;;;;1547013;76;717;-66
2021/07/07 00:47:21;;;;;;;;;;;25.30;52.30;;;;;;1538609;75;847;-67
2021/07/07 00:49:23;;;;;;;;;;;25.30;52.30;;;;;;1577166;72;2991;-63
2021/07/07 00:51:25;;;;;;;;;;;25.30;52.30;;;;;;1626126;72;801;-66
2021/07/07 00:53:27;;;;;;;;;;;25.40;52.30;;;;;;1631080;72;776;-66
2021/07/07 00:55:29;;;;;;;;;;;25.40;52.30;;;;;;1624361;72;1948;-66
2021/07/07 00:57:34;;;;;;;;;;;25.30;52.30;;;;;;1625247;72;726;-66
2021/07/07 00:59:34;;;;;;;;;;;25.40;52.20;;;;;;1623991;72;1674;-68
2021/07/07 01:01:36;;;;;;;;;;;25.30;52.20;;;;;;1600700;73;776;-63
2021/07/07 01:03:38;;;;;;;;;;;25.30;52.20;;;;;;1599081;73;691;-65
2021/07/07 01:05:40;;;;;;;;;;;25.40;52.20;;;;;;1605510;73;774;-67
2021/07/07 01:07:42;;;;;;;;;;;25.30;52.20;;;;;;1602173;73;801;-65
2021/07/07 01:09:44;;;;;;;;;;;25.30;52.30;;;;;;1604492;73;1158;-65
2021/07/07 01:11:46;;;;;;;;;;;25.30;52.30;;;;;;1608810;73;713;-61
2021/07/07 01:13:47;;;;;;;;;;;25.00;52.30;;;;;;1603633;73;790;-64
2021/07/07 01:15:50;;;;;;;;;;;25.30;52.30;;;;;;1594039;73;1949;-64
2021/07/07 01:17:52;;;;;;;;;;;25.30;52.40;;;;;;1610338;73;759;-63
2021/07/07 01:19:54;;;;;;;;;;;25.40;52.30;;;;;;1602515;73;1135;-63
2021/07/07 01:21:55;;;;;;;;;;;25.40;52.30;;;;;;1604738;73;703;-63
2021/07/07 01:23:57;;;;;;;;;;;25.30;52.30;;;;;;1605809;73;808;-63
2021/07/07 01:25:59;;;;;;;;;;;25.40;52.30;;;;;;1606025;73;787;-63
2021/07/07 01:28:05;;;;;;;;;;;25.40;52.30;;;;;;1601569;73;659;-65
2021/07/07 01:30:05;;;;;;;;;;;25.40;52.30;;;;;;1598670;73;1577;-64
2021/07/07 01:32:07;;;;;;;;;;;25.40;52.30;;;;;;1601684;73;807;-66
2021/07/07 01:34:09;;;;;;;;;;;25.30;52.30;;;;;;1600463;73;782;-62
2021/07/07 01:36:11;;;;;;;;;;;25.30;52.30;;;;;;1604190;73;1937;-63
2021/07/07 01:38:13;;;;;;;;;;;25.30;52.30;;;;;;1610974;73;730;-64
2021/07/07 01:40:15;;;;;;;;;;;25.30;52.30;;;;;;1613301;73;1181;-64
2021/07/07 01:42:17;;;;;;;;;;;25.40;52.20;;;;;;1601118;73;761;-63
2021/07/07 01:44:19;;;;;;;;;;;25.40;52.30;;;;;;1607318;73;783;-64
2021/07/07 01:46:21;;;;;;;;;;;25.30;52.20;;;;;;1601150;73;816;-63
2021/07/07 01:48:23;;;;;;;;;;;25.40;52.20;;;;;;1596543;73;773;-64
2021/07/07 01:50:25;;;;;;;;;;;25.30;52.20;;;;;;1598364;73;1082;-64
2021/07/07 01:52:27;;;;;;;;;;;25.40;52.20;;;;;;1604073;73;772;-66
2021/07/07 01:54:29;;;;;;;;;;;25.40;52.10;;;;;;1604332;73;785;-65
2021/07/07 01:56:31;;;;;;;;;;;25.40;52.10;;;;;;1606207;73;1941;-66
2021/07/07 01:58:33;;;;;;;;;;;25.30;52.10;;;;;;1601566;73;1207;-65
2021/07/07 02:00:35;;;;;;;;;;;25.40;52.10;;;;;;1607062;73;789;-67
2021/07/07 02:02:38;;;;;;;;;;;25.30;52.10;;;;;;1603388;73;769;-67
2021/07/07 02:04:40;;;;;;;;;;;25.30;52.10;;;;;;1609406;73;795;-66
2021/07/07 02:06:41;;;;;;;;;;;25.40;52.10;;;;;;1598710;73;748;-66
2021/07/07 02:08:43;;;;;;;;;;;25.30;52.20;;;;;;1605548;73;1142;-68
2021/07/07 02:10:45;;;;;;;;;;;25.30;52.20;;;;;;1607472;73;785;-64
2021/07/07 02:12:47;;;;;;;;;;;25.30;52.10;;;;;;1606217;73;767;-65
2021/07/07 02:14:49;;;;;;;;;;;25.30;52.10;;;;;;1604196;73;729;-64
2021/07/07 02:16:51;;;;;;;;;;;25.40;52.10;;;;;;1608815;73;1914;-64
2021/07/07 02:18:53;;;;;;;;;;;25.40;52.10;;;;;;1602081;73;1141;-65
2021/07/07 02:20:55;;;;;;;;;;;25.30;52.10;;;;;;1606976;73;750;-65
2021/07/07 02:22:57;;;;;;;;;;;25.30;52.00;;;;;;1596895;73;690;-65
2021/07/07 02:24:59;;;;;;;;;;;25.30;52.00;;;;;;1604934;73;721;-66
2021/07/07 02:27:00;;;;;;;;;;;25.40;51.90;;;;;;1602026;73;818;-65
2021/07/07 02:29:03;;;;;;;;;;;25.30;52.10;;;;;;1612049;73;1147;-66
2021/07/07 02:31:05;;;;;;;;;;;25.30;52.00;;;;;;1595199;73;786;-64
2021/07/07 02:33:08;;;;;;;;;;;25.30;52.00;;;;;;1600216;73;803;-64
2021/07/07 02:35:11;;;;;;;;;;;25.30;52.00;;;;;;1608102;73;719;-64
2021/07/07 02:37:13;;;;;;;;;;;25.30;51.90;;;;;;1595910;73;1934;-65
2021/07/07 02:39:15;;;;;;;;;;;25.30;51.90;;;;;;1600052;73;1195;-70
2021/07/07 02:41:17;;;;;;;;;;;25.40;51.90;;;;;;1597097;73;813;-66
2021/07/07 02:43:18;;;;;;;;;;;25.30;51.80;;;;;;1599141;73;797;-65
2021/07/07 02:45:20;;;;;;;;;;;25.30;51.70;;;;;;1593910;73;687;-66
2021/07/07 02:47:22;;;;;;;;;;;25.30;51.80;;;;;;1607558;73;720;-65
2021/07/07 02:49:25;;;;;;;;;;;25.40;51.60;;;;;;1604608;73;1167;-68
2021/07/07 02:51:27;;;;;;;;;;;25.30;51.70;;;;;;1605536;73;820;-65
2021/07/07 02:53:29;;;;;;;;;;;25.40;51.60;;;;;;1593765;73;572;-65
2021/07/07 02:55:31;;;;;;;;;;;25.30;51.60;;;;;;1597991;73;740;-66
2021/07/07 02:57:55;;;;;;;;;;;25.30;51.70;;;;;;1603212;73;1996;-70
2021/07/07 02:59:36;;;;;;;;;;;25.20;51.60;;;;;;1600011;73;1480;-69
2021/07/07 03:01:38;;;;;;;;;;;25.30;52.00;;;;;;1602172;73;790;-69
2021/07/07 03:03:41;;;;;;;;;;;25.30;52.10;;;;;;1606348;73;811;-69
2021/07/07 03:05:44;;;;;;;;;;;25.30;51.90;;;;;;1595242;73;705;-70
2021/07/07 03:07:46;;;;;;;;;;;25.20;52.00;;;;;;1596549;73;732;-69
2021/07/07 03:09:48;;;;;;;;;;;25.20;51.90;;;;;;1596492;73;1082;-72
2021/07/07 03:11:50;;;;;;;;;;;25.30;51.80;;;;;;1601357;73;747;-69
2021/07/07 03:13:52;;;;;;;;;;;25.30;51.90;;;;;;1607872;73;753;-71
2021/07/07 03:15:54;;;;;;;;;;;25.30;51.90;;;;;;1609176;73;1905;-70
2021/07/07 03:17:56;;;;;;;;;;;25.20;51.80;;;;;;1601923;73;678;-69
2021/07/07 03:19:57;;;;;;;;;;;25.30;51.80;;;;;;1601007;73;1152;-68
2021/07/07 03:21:59;;;;;;;;;;;25.40;51.80;;;;;;1600565;73;783;-70
2021/07/07 03:24:01;;;;;;;;;;;25.20;51.80;;;;;;1604725;73;972;-69
2021/07/07 03:26:03;;;;;;;;;;;25.30;51.80;;;;;;1597953;73;772;-70
2021/07/07 03:28:05;;;;;;;;;;;25.30;51.80;;;;;;1602136;73;879;-70
2021/07/07 03:30:07;;;;;;;;;;;25.30;51.70;;;;;;1604384;73;1154;-71
2021/07/07 03:32:09;;;;;;;;;;;25.30;51.80;;;;;;1605835;73;736;-71
2021/07/07 03:34:11;;;;;;;;;;;25.30;51.70;;;;;;1608190;73;793;-70
2021/07/07 03:36:13;;;;;;;;;;;25.30;51.70;;;;;;1604204;73;1944;-71
2021/07/07 03:38:15;;;;;;;;;;;25.20;51.90;;;;;;1608261;73;700;-68
2021/07/07 03:40:17;;;;;;;;;;;25.20;51.90;;;;;;1602343;73;1175;-68
2021/07/07 03:42:19;;;;;;;;;;;25.20;51.90;;;;;;1612187;73;790;-68
2021/07/07 03:44:21;;;;;;;;;;;25.30;51.90;;;;;;1611884;73;776;-68
2021/07/07 03:46:23;;;;;;;;;;;25.30;51.90;;;;;;1602460;73;1024;-66
2021/07/07 03:48:24;;;;;;;;;;;25.30;51.80;;;;;;1601170;73;801;-68
2021/07/07 03:50:26;;;;;;;;;;;25.30;52.00;;;;;;1603414;73;1189;-67
2021/07/07 03:52:28;;;;;;;;;;;25.20;51.90;;;;;;1598927;73;877;-67
2021/07/07 03:54:30;;;;;;;;;;;25.30;51.90;;;;;;1602217;73;832;-67
2021/07/07 03:56:32;;;;;;;;;;;25.30;51.90;;;;;;1603134;73;1918;-71
2021/07/07 03:58:34;;;;;;;;;;;25.30;51.90;;;;;;1594556;73;1135;-65
2021/07/07 04:00:36;;;;;;;;;;;25.30;51.80;;;;;;1602971;73;770;-69
2021/07/07 04:02:38;;;;;;;;;;;25.30;51.90;;;;;;1600259;73;830;-67
2021/07/07 04:04:40;;;;;;;;;;;25.30;51.90;;;;;;1601194;73;722;-67
2021/07/07 04:06:42;;;;;;;;;;;25.30;51.80;;;;;;1603464;73;698;-67
2021/07/07 04:08:44;;;;;;;;;;;25.30;51.80;;;;;;1599759;73;1148;-69
2021/07/07 04:10:45;;;;;;;;;;;25.30;51.80;;;;;;1595477;73;718;-69
2021/07/07 04:12:48;;;;;;;;;;;25.30;52.00;;;;;;1601276;73;684;-71
2021/07/07 04:14:50;;;;;;;;;;;25.20;52.10;;;;;;1599291;73;764;-69
2021/07/07 04:16:53;;;;;;;;;;;25.20;52.10;;;;;;1608212;73;1924;-71
2021/07/07 04:18:54;;;;;;;;;;;25.20;52.10;;;;;;1602487;73;1170;-71
2021/07/07 04:20:56;;;;;;;;;;;25.30;52.10;;;;;;1603757;73;866;-69
2021/07/07 04:22:58;;;;;;;;;;;25.30;52.30;;;;;;1600799;73;700;-67
2021/07/07 04:25:00;;;;;;;;;;;25.30;52.30;;;;;;1611094;73;772;-69
2021/07/07 04:27:02;;;;;;;;;;;25.30;52.30;;;;;;1599746;73;747;-69
2021/07/07 04:29:04;;;;;;;;;;;25.30;52.20;;;;;;1606256;73;1169;-68
2021/07/07 04:31:06;;;;;;;;;;;25.30;52.30;;;;;;1601911;73;894;-66
2021/07/07 04:33:08;;;;;;;;;;;25.30;52.20;;;;;;1590626;73;709;-72
2021/07/07 04:35:10;;;;;;;;;;;25.30;52.20;;;;;;1602201;73;720;-69
2021/07/07 04:37:12;;;;;;;;;;;25.30;52.20;;;;;;1609783;73;1917;-68
2021/07/07 04:39:14;;;;;;;;;;;25.30;52.10;;;;;;1600684;73;1195;-67
2021/07/07 04:41:16;;;;;;;;;;;25.30;52.30;;;;;;1595098;73;776;-68
2021/07/07 04:43:18;;;;;;;;;;;25.30;52.20;;;;;;1592000;73;782;-66
2021/07/07 04:45:20;;;;;;;;;;;25.40;52.10;;;;;;1589852;73;770;-67
2021/07/07 04:47:22;;;;;;;;;;;25.30;52.10;;;;;;1609363;73;777;-66
2021/07/07 04:49:24;;;;;;;;;;;25.30;52.00;;;;;;1601557;73;1195;-68
2021/07/07 04:51:26;;;;;;;;;;;25.30;52.10;;;;;;1602857;73;799;-72
2021/07/07 04:53:27;;;;;;;;;;;25.30;52.10;;;;;;1602100;73;702;-70
2021/07/07 04:55:29;;;;;;;;;;;25.30;51.90;;;;;;1609721;73;765;-69
2021/07/07 04:57:43;;;;;;;;;;;25.40;51.90;;;;;;1603973;73;1939;-71
2021/07/07 04:59:45;;;;;;;;;;;25.30;51.90;;;;;;1603932;73;1218;-69
2021/07/07 05:01:47;;;;;;;;;;;25.20;51.80;;;;;;1599152;73;725;-68
2021/07/07 05:03:49;;;;;;;;;;;25.30;51.80;;;;;;1604826;73;919;-69
2021/07/07 05:05:51;;;;;;;;;;;25.40;51.80;;;;;;1613846;73;823;-70
2021/07/07 05:07:53;;;;;;;;;;;25.30;51.70;;;;;;1601126;73;780;-71
2021/07/07 05:09:55;;;;;;;;;;;25.30;51.70;;;;;;1606233;73;1146;-71
2021/07/07 05:11:56;;;;;;;;;;;25.30;51.70;;;;;;1599796;73;789;-67
2021/07/07 05:13:58;;;;;;;;;;;25.30;51.70;;;;;;1606520;73;788;-71
2021/07/07 05:16:00;;;;;;;;;;;25.30;51.70;;;;;;1592866;73;740;-67
2021/07/07 05:18:02;;;;;;;;;;;25.30;51.80;;;;;;1608269;73;1952;-69
2021/07/07 05:20:04;;;;;;;;;;;25.30;51.60;;;;;;1600973;73;1170;-68
2021/07/07 05:22:06;;;;;;;;;;;25.30;51.60;;;;;;1599797;73;913;-70
2021/07/07 05:24:08;;;;;;;;;;;25.30;51.50;;;;;;1610014;73;654;-69
2021/07/07 05:26:10;;;;;;;;;;;25.30;51.60;;;;;;1591233;73;695;-71
2021/07/07 05:28:12;;;;;;;;;;;25.20;51.60;;;;;;1603599;73;916;-68
2021/07/07 05:30:14;;;;;;;;;;;25.30;51.90;;;;;;1603278;73;1056;-70
2021/07/07 05:32:25;;;;;;;;;;;25.30;51.80;;;;;;1605430;73;667;-71
2021/07/07 05:34:20;;;;;;;;;;;25.30;51.80;;;;;;1602827;73;1293;-68
2021/07/07 05:36:22;;;;;;;;;;;25.30;51.60;;;;;;1608464;73;785;-68
2021/07/07 05:38:24;;;;;;;;;;;25.20;51.50;;;;;;1601328;73;1909;-68
2021/07/07 05:40:26;;;;;;;;;;;25.20;51.50;;;;;;1603442;73;1101;-71
2021/07/07 05:42:28;;;;;;;;;;;25.30;51.50;;;;;;1602730;73;780;-72
2021/07/07 05:44:30;;;;;;;;;;;25.30;51.40;;;;;;1606240;73;755;-67
2021/07/07 05:46:32;;;;;;;;;;;25.20;51.40;;;;;;1611019;73;753;-69
2021/07/07 05:48:33;;;;;;;;;;;25.20;51.60;;;;;;1597200;73;1211;-68
2021/07/07 05:50:35;;;;;;;;;;;25.30;51.80;;;;;;1605554;73;741;-69
2021/07/07 05:52:37;;;;;;;;;;;25.20;52.00;;;;;;1602388;73;798;-72
2021/07/07 05:54:39;;;;;;;;;;;25.30;52.30;;;;;;1605789;73;825;-68
2021/07/07 05:56:41;;;;;;;;;;;25.30;52.10;;;;;;1594207;73;762;-68
2021/07/07 05:58:45;;;;;;;;;;;25.30;51.60;;;;;;1599426;73;1935;-66
2021/07/07 06:00:46;;;;;;;;;;;25.30;51.40;;;;;;1601870;73;1669;-69
2021/07/07 06:02:48;;;;;;;;;;;25.20;51.60;;;;;;1605443;73;749;-69
2021/07/07 06:04:50;;;;;;;;;;;25.30;51.40;;;;;;1598978;73;808;-70
2021/07/07 06:06:52;;;;;;;;;;;25.30;51.30;;;;;;1589904;73;769;-67
2021/07/07 06:08:55;;;;;;;;;;;25.20;51.20;;;;;;1604331;73;1121;-66
2021/07/07 06:10:57;;;;;;;;;;;25.20;51.10;;;;;;1602883;73;760;-71
2021/07/07 06:12:58;;;;;;;;;;;25.20;51.00;;;;;;1592654;73;787;-68
2021/07/07 06:15:00;;;;;;;;;;;25.20;51.10;;;;;;1598174;73;794;-68
2021/07/07 06:17:02;;;;;;;;;;;25.20;51.10;;;;;;1593519;73;1941;-69
2021/07/07 06:19:04;;;;;;;;;;;25.10;51.10;;;;;;1598130;73;1132;-70
2021/07/07 06:21:06;;;;;;;;;;;25.20;51.10;;;;;;1598083;73;755;-69
2021/07/07 06:23:08;;;;;;;;;;;25.10;51.10;;;;;;1598485;73;737;-68
2021/07/07 06:25:10;;;;;;;;;;;25.10;51.10;;;;;;1601941;73;712;-68
2021/07/07 06:27:12;;;;;;;;;;;25.10;51.20;;;;;;1604879;73;741;-73
2021/07/07 06:29:15;;;;;;;;;;;25.10;51.20;;;;;;1593593;73;1116;-70
2021/07/07 06:31:17;;;;;;;;;;;25.10;51.20;;;;;;1598013;73;1033;-67
2021/07/07 06:33:19;;;;;;;;;;;25.10;51.10;;;;;;1605271;73;803;-68
2021/07/07 06:35:21;;;;;;;;;;;25.10;51.10;;;;;;1599891;73;776;-70
2021/07/07 06:37:23;;;;;;;;;;;25.10;51.10;;;;;;1602420;73;1921;-69
2021/07/07 06:39:25;;;;;;;;;;;25.10;51.10;;;;;;1602212;73;1147;-68
2021/07/07 06:41:26;;;;;;;;;;;25.10;51.20;;;;;;1601978;73;719;-70
2021/07/07 06:43:28;;;;;;;;;;;25.00;51.20;;;;;;1606055;73;766;-68
2021/07/07 06:45:36;;;;;;;;;;;25.00;51.30;;;;;;1600038;73;776;-67
2021/07/07 06:47:34;;;;;;;;;;;25.00;51.30;;;;;;1600229;73;1636;-68
2021/07/07 06:49:36;;;;;;;;;;;25.00;51.30;;;;;;1570333;71;219262;-65
2021/07/07 06:51:38;;;;;;;;;;;25.10;51.40;;;;;;1479345;78;732;-65
2021/07/07 06:53:40;;;;;;;;;;;25.00;51.40;;;;;;1553670;75;715;-66
2021/07/07 06:55:42;;;;;;;;;;;25.00;51.40;;;;;;1530319;75;773;-66
2021/07/07 06:57:44;;;;;;;;;;;25.00;51.50;;;;;;1535249;75;1948;-65
2021/07/07 06:59:45;;;;;;;;;;;25.00;51.50;;;;;;1540979;74;1149;-67
2021/07/07 07:01:47;;;;;;;;;;;25.00;51.50;;;;;;1561475;74;723;-62
2021/07/07 07:03:49;;;;;;;;;;;25.00;51.50;;;;;;1567600;74;933;-65
2021/07/07 07:05:51;;;;;;;;;;;25.10;51.50;;;;;;1561612;74;718;-66
2021/07/07 07:07:53;;;;;;;;;;;25.10;51.50;;;;;;1566553;74;752;-66
2021/07/07 07:09:58;;;;;;;;;;;25.00;51.50;;;;;;1570636;74;1574;-65
2021/07/07 07:11:58;;;;;;;;;;;25.00;51.50;;;;;;1568882;74;1247;-66
2021/07/07 07:14:00;;;;;;;;;;;25.00;51.50;;;;;;1566506;74;728;-64
2021/07/07 07:16:02;;;;;;;;;;;25.00;51.50;;;;;;1548081;74;718;-65
2021/07/07 07:18:04;;;;;;;;;;;25.00;51.50;;;;;;1555110;74;1916;-66
2021/07/07 07:20:08;;;;;;;;;;;25.00;51.60;;;;;;1560039;74;1127;-65
2021/07/07 07:22:09;;;;;;;;;;;25.00;51.70;;;;;;1548125;74;742;-65
2021/07/07 07:24:11;;;;;;;;;;;25.00;51.60;;;;;;1552190;74;717;-66
2021/07/07 07:26:13;;;;;;;;;;;25.00;51.60;;;;;;1559457;74;729;-65
2021/07/07 07:28:15;;;;;;;;;;;25.00;51.60;;;;;;1555721;74;626;-64
2021/07/07 07:30:18;;;;;;;;;;;25.00;51.70;;;;;;1562897;74;1124;-65
2021/07/07 07:32:20;;;;;;;;;;;25.00;51.70;;;;;;1550340;74;716;-63
2021/07/07 07:34:22;;;;;;;;;;;25.00;51.70;;;;;;1557278;74;735;-64
2021/07/07 07:36:24;;;;;;;;;;;25.00;51.80;;;;;;1556812;74;679;-64
2021/07/07 07:38:31;;;;;;;;;;;24.90;51.80;;;;;;1559356;74;1917;-66
2021/07/07 07:40:37;;;;;;;;;;;25.00;51.90;;;;;;1561911;74;1621;-66
2021/07/07 07:42:36;;;;;;;;;;;24.90;51.90;;;;;;1559858;74;1581;-65
2021/07/07 07:44:38;;;;;;;;;;;25.00;52.00;;;;;;1568132;74;720;-65
2021/07/07 07:46:40;;;;;;;;;;;25.00;52.10;;;;;;1563979;74;739;-65
2021/07/07 07:48:42;;;;;;;;;;;24.90;52.10;;;;;;1562688;74;702;-63
2021/07/07 07:50:44;;;;;;;;;;;25.00;52.10;;;;;;1567010;74;1104;-65
2021/07/07 07:52:46;;;;;;;;;;;24.90;52.20;;;;;;1556050;74;723;-64
2021/07/07 07:54:48;;;;;;;;;;;25.00;52.30;;;;;;1557885;74;786;-66
2021/07/07 07:56:50;;;;;;;;;;;24.90;52.20;;;;;;1559885;74;729;-65
2021/07/07 07:58:51;;;;;;;;;;;25.00;52.30;;;;;;1569554;74;1941;-65
2021/07/07 08:00:53;;;;;;;;;;;24.90;52.30;;;;;;1559942;74;1072;-65
2021/07/07 08:02:55;;;;;;;;;;;24.90;52.30;;;;;;1568008;74;702;-60
2021/07/07 08:04:57;;;;;;;;;;;24.90;52.30;;;;;;1566113;74;806;-65
2021/07/07 08:06:59;;;;;;;;;;;24.90;52.30;;;;;;1570718;74;737;-64
2021/07/07 08:09:01;;;;;;;;;;;24.90;52.30;;;;;;1571205;74;1110;-63
2021/07/07 08:11:03;;;;;;;;;;;24.90;52.30;;;;;;1569193;74;692;-65
2021/07/07 08:13:05;;;;;;;;;;;24.90;52.40;;;;;;1564872;74;784;-64
2021/07/07 08:15:07;;;;;;;;;;;24.80;52.30;;;;;;1561952;74;787;-64
2021/07/07 08:17:09;;;;;;;;;;;24.90;52.40;;;;;;1556878;74;715;-65
2021/07/07 08:19:11;;;;;;;;;;;24.90;52.40;;;;;;1554766;74;1943;-64
2021/07/07 08:21:13;;;;;;;;;;;24.90;52.40;;;;;;1552816;74;832;-64
2021/07/07 08:23:15;;;;;;;;;;;24.80;52.30;;;;;;1559604;74;779;-66
2021/07/07 08:25:17;;;;;;;;;;;24.80;52.40;;;;;;1557787;74;839;-64
2021/07/07 08:27:19;;;;;;;;;;;24.80;52.40;;;;;;1565599;74;737;-65
2021/07/07 08:29:21;;;;;;;;;;;24.80;52.50;;;;;;1552281;74;1168;-64
2021/07/07 08:31:23;;;;;;;;;;;24.90;52.70;;;;;;1565788;74;806;-64
2021/07/07 08:33:25;;;;;;;;;;;24.80;52.60;;;;;;1562702;74;674;-63
2021/07/07 08:35:27;;;;;;;;;;;24.80;52.60;;;;;;1559949;74;857;-64
2021/07/07 08:37:29;;;;;;;;;;;24.80;52.60;;;;;;1555598;74;769;-63
2021/07/07 08:39:31;;;;;;;;;;;24.90;52.60;;;;;;1559389;74;1945;-65
2021/07/07 08:41:33;;;;;;;;;;;24.90;52.70;;;;;;1562301;74;796;-65
2021/07/07 08:43:35;;;;;;;;;;;24.80;52.60;;;;;;1560575;74;686;-65
2021/07/07 08:45:37;;;;;;;;;;;24.80;52.60;;;;;;1565933;74;683;-62
2021/07/07 08:47:40;;;;;;;;;;;24.80;52.70;;;;;;1561753;74;801;-63
2021/07/07 08:49:42;;;;;;;;;;;24.80;52.70;;;;;;1559773;74;1142;-63
2021/07/07 08:51:44;;;;;;;;;;;24.80;52.70;;;;;;1555541;74;669;-63
2021/07/07 08:53:46;;;;;;;;;;;24.80;52.80;;;;;;1572503;74;735;-64
2021/07/07 08:55:48;;;;;;;;;;;24.80;52.80;;;;;;1555895;74;706;-66
2021/07/07 08:57:50;;;;;;;;;;;24.80;52.80;;;;;;1575248;74;804;-63
2021/07/07 08:59:53;;;;;;;;;;;24.80;52.80;;;;;;1556543;74;1938;-62
2021/07/07 09:02:01;;;;;;;;;;;24.80;52.80;;;;;;1573624;74;770;-64
2021/07/07 09:04:03;;;;;;;;;;;24.70;52.80;;;;;;1573699;74;679;-63
2021/07/07 09:06:06;;;;;;;;;;;24.70;52.80;;;;;;1569287;74;718;-64
2021/07/07 09:08:07;;;;;;;;;;;24.80;52.80;;;;;;1566115;74;709;-63
2021/07/07 09:10:10;;;;;;;;;;;24.80;52.90;;;;;;1568154;74;1215;-65
2021/07/07 09:12:16;;;;;;;;;;;24.70;52.80;;;;;;1569166;74;728;-65
2021/07/07 09:14:18;;;;;;;;;;;24.80;52.90;;;;;;1561228;74;709;-65
2021/07/07 09:16:20;;;;;;;;;;;24.80;52.80;;;;;;1578177;74;728;-66
2021/07/07 09:18:23;;;;;;;;;;;24.80;52.90;;;;;;1558291;74;1935;-66
2021/07/07 09:20:34;;;;;;;;;;;24.80;52.90;;;;;;1560752;74;1139;-65
2021/07/07 09:22:29;;;;;;;;;;;24.80;52.80;;;;;;1553173;74;1571;-64
2021/07/07 09:24:31;;;;;;;;;;;24.80;53.00;;;;;;1551798;74;592;-64
2021/07/07 09:26:35;;;;;;;;;;;24.80;53.00;;;;;;1560008;74;733;-66
2021/07/07 09:28:38;;;;;;;;;;;24.80;53.10;;;;;;1550968;74;735;-65
2021/07/07 09:30:40;;;;;;;;;;;24.80;53.00;;;;;;1566749;74;1102;-65
2021/07/07 09:32:43;;;;;;;;;;;24.80;53.00;;;;;;1553094;74;674;-65
2021/07/07 09:34:50;;;;;;;;;;;24.80;53.00;;;;;;1555269;74;1683;-65
2021/07/07 09:36:56;;;;;;;;;;;24.80;53.00;;;;;;1555972;74;735;-63
2021/07/07 09:38:58;;;;;;;;;;;24.80;53.00;;;;;;1554249;74;1898;-61
2021/07/07 09:41:00;;;;;;;;;;;24.80;53.10;;;;;;1565478;74;807;-65
2021/07/07 09:43:03;;;;;;;;;;;24.80;53.10;;;;;;1545305;75;1153;-64
2021/07/07 09:45:07;;;;;;;;;;;24.80;53.10;;;;;;1555163;74;764;-65
2021/07/07 09:47:09;;;;;;;;;;;24.80;53.10;;;;;;1553001;74;1009;-63
2021/07/07 09:49:11;;;;;;;;;;;24.80;53.10;;;;;;1556378;74;1138;-63
2021/07/07 09:51:13;;;;;;;;;;;24.80;53.10;;;;;;1560583;74;791;-65
2021/07/07 09:53:15;;;;;;;;;;;24.80;53.10;;;;;;1561248;74;695;-66
2021/07/07 09:55:16;;;;;;;;;;;24.80;53.10;;;;;;1554434;74;672;-66
2021/07/07 09:57:18;;;;;;;;;;;24.80;53.20;;;;;;1570602;74;712;-67
2021/07/07 09:59:20;;;;;;;;;;;24.80;53.30;;;;;;1565100;74;1934;-65
2021/07/07 10:01:22;;;;;;;;;;;24.90;53.50;;;;;;1564347;74;779;-62
2021/07/07 10:03:24;;;;;;;;;;;24.90;53.30;;;;;;1560548;74;702;-62
2021/07/07 10:05:26;;;;;;;;;;;24.80;53.30;;;;;;1553819;74;793;-64
2021/07/07 10:07:28;;;;;;;;;;;24.80;53.30;;;;;;1558551;74;741;-65
2021/07/07 10:09:30;;;;;;;;;;;24.80;53.20;;;;;;1559341;74;1122;-63
2021/07/07 10:11:32;;;;;;;;;;;24.80;53.20;;;;;;1565284;74;723;-63
2021/07/07 10:13:33;;;;;;;;;;;24.80;53.20;;;;;;1569622;74;713;-66
2021/07/07 10:15:35;;;;;;;;;;;24.80;53.40;;;;;;1554950;74;736;-64
2021/07/07 10:17:37;;;;;;;;;;;24.90;53.40;;;;;;1557974;74;782;-63
2021/07/07 10:19:39;;;;;;;;;;;24.90;53.40;;;;;;1554194;74;1947;-62
2021/07/07 10:21:41;;;;;;;;;;;24.90;53.40;;;;;;1570214;74;781;-61
2021/07/07 10:23:43;;;;;;;;;;;24.90;53.40;;;;;;1555410;74;759;-62
2021/07/07 10:25:45;;;;;;;;;;;24.90;53.30;;;;;;1566205;74;724;-62
2021/07/07 10:27:46;;;;;;;;;;;24.80;53.20;;;;;;1561038;74;792;-63
2021/07/07 10:29:48;;;;;;;;;;;24.90;53.20;;;;;;1557938;74;1128;-64
2021/07/07 10:31:51;;;;;;;;;;;24.90;53.30;;;;;;1564542;74;698;-63
2021/07/07 10:33:53;;;;;;;;;;;24.90;53.30;;;;;;1566989;74;805;-68
2021/07/07 10:36:12;;;;;;;;;;;24.80;53.10;;;;;;1529538;75;1234;-64
2021/07/07 10:38:14;;;;;;;;;;;24.90;53.20;;;;;;1557977;74;595;-63
2021/07/07 10:40:21;;;;;;;;;;;24.80;53.00;;;;;;1555388;74;1943;-63
2021/07/07 10:42:24;;;;;;;;;;;24.80;52.90;;;;;;1553856;74;1710;-63
2021/07/07 10:44:28;;;;;;;;;;;24.80;52.80;;;;;;1556716;74;1428;-63
2021/07/07 10:46:49;;;;;;;;;;;24.80;52.70;;;;;;1552164;74;660;-62
2021/07/07 10:48:52;;;;;;;;;;;24.80;52.70;;;;;;1562111;74;715;-64
2021/07/07 10:50:54;;;;;;;;;;;24.80;52.70;;;;;;1518595;75;1416;-63
2021/07/07 10:52:56;;;;;;;;;;;24.80;52.60;;;;;;1492858;77;816;-63
2021/07/07 10:54:59;;;;;;;;;;;24.80;52.50;;;;;;1490700;77;702;-63
2021/07/07 10:57:06;;;;;;;;;;;24.80;52.40;;;;;;1509706;77;805;-64
2021/07/07 10:59:07;;;;;;;;;;;24.80;52.20;;;;;;1505725;77;1920;-64
2021/07/07 11:01:27;;;;;;;;;;;24.80;52.10;;;;;;1521312;76;1628;-64
2021/07/07 11:03:36;;;;;;;;;;;24.80;52.10;;;;;;1511293;77;820;-62
2021/07/07 11:05:37;;;;;;;;;;;24.80;52.10;;;;;;1505806;77;1605;-60
2021/07/07 11:07:39;;;;;;;;;;;24.80;51.90;;;;;;1517248;76;1783;-62
2021/07/07 11:09:41;;;;;;;;;;;24.80;51.80;;;;;;1516693;76;1153;-63
2021/07/07 11:11:44;;;;;;;;;;;24.80;51.80;;;;;;1519539;76;787;-62
2021/07/07 11:13:46;;;;;;;;;;;24.80;51.80;;;;;;1514541;76;726;-62
2021/07/07 11:15:48;;;;;;;;;;;24.70;51.80;;;;;;1513190;76;704;-64
2021/07/07 11:17:51;;;;;;;;;;;24.80;51.80;;;;;;1512175;76;815;-63
2021/07/07 11:19:53;;;;;;;;;;;24.80;51.50;;;;;;1519653;76;1909;-62
2021/07/07 11:21:55;;;;;;;;;;;24.80;51.50;;;;;;1526717;76;817;-63
2021/07/07 11:23:56;;;;;;;;;;;24.80;51.30;;;;;;1500700;77;1215;-62
2021/07/07 11:25:58;;;;;;;;;;;24.90;51.40;;;;;;1511985;77;778;-62
2021/07/07 11:28:01;;;;;;;;;;;24.80;51.30;;;;;;1520306;76;707;-63
2021/07/07 11:30:07;;;;;;;;;;;24.80;51.40;;;;;;1518219;76;1148;-63
2021/07/07 11:32:27;;;;;;;;;;;24.80;51.70;;;;;;1519830;76;1010;-62
2021/07/07 11:34:50;;;;;;;;;;;24.70;51.70;;;;;;1523208;76;712;-63
2021/07/07 11:36:52;;;;;;;;;;;24.80;51.70;;;;;;1515921;76;1537;-64
2021/07/07 11:38:56;;;;;;;;;;;24.80;51.50;;;;;;1517581;76;1919;-66
2021/07/07 11:40:58;;;;;;;;;;;24.80;51.50;;;;;;1511827;77;1734;-63
2021/07/07 11:43:01;;;;;;;;;;;24.60;51.50;;;;;;1523276;76;827;-63
2021/07/07 11:45:03;;;;;;;;;;;24.70;51.70;;;;;;1525139;76;705;-63
2021/07/07 11:47:05;;;;;;;;;;;24.80;51.70;;;;;;1527097;76;756;-63
2021/07/07 11:49:08;;;;;;;;;;;24.70;51.70;;;;;;1530162;76;1144;-63
2021/07/07 11:51:13;;;;;;;;;;;24.60;51.30;;;;;;1525037;76;774;-63
2021/07/07 11:53:14;;;;;;;;;;;24.60;51.30;;;;;;1509300;77;1606;-61
2021/07/07 11:55:16;;;;;;;;;;;24.80;51.30;;;;;;1500370;77;728;-62
2021/07/07 11:57:18;;;;;;;;;;;24.70;51.20;;;;;;1513760;77;630;-64
2021/07/07 11:59:20;;;;;;;;;;;24.70;51.20;;;;;;1508106;77;1942;-67
2021/07/07 12:01:22;;;;;;;;;;;24.70;51.30;;;;;;1507401;77;679;-66
2021/07/07 12:03:24;;;;;;;;;;;24.70;51.40;;;;;;1511533;77;783;-68
2021/07/07 12:05:26;;;;;;;;;;;24.70;51.50;;;;;;1505970;77;774;-66
2021/07/07 12:07:28;;;;;;;;;;;24.60;51.40;;;;;;1504858;77;781;-66
2021/07/07 12:09:31;;;;;;;;;;;24.60;51.50;;;;;;1510182;77;1108;-68